Time;durP1;ratioP1;P1;durP2;ratioP2;P2;SDS_P1;SDS_P2;PMS_P1;PMS_P2;Temp;Humidity;BMP_temperature;BMP_pressure;BME280_temperature;BME280_humidity;BME280_pressure;Samples;Min_cycle;Max_cycle;Signal;HPM_P1;HPM_P2
2021/07/18 04:40:26;;;;;;;16.70;13.00;;;;;;;23.91;67.93;99890.31;5298587;27;20053;-85
2021/07/18 04:42:53;;;;;;;14.35;10.93;;;;;;;24.03;67.68;99889.50;5278815;27;20411;-86
2021/07/18 04:45:20;;;;;;;14.45;11.48;;;;;;;24.22;66.84;99891.75;5278816;27;20068;-86
2021/07/18 04:47:58;;;;;;;17.85;12.15;;;;;;;24.31;66.82;99895.59;5279911;27;20069;-85
2021/07/18 04:50:26;;;;;;;15.27;11.18;;;;;;;24.48;66.01;99907.88;5298364;27;20050;-85
2021/07/18 04:52:54;;;;;;;14.70;10.70;;;;;;;24.36;66.61;99925.66;5298449;27;20067;-85
2021/07/18 04:55:22;;;;;;;14.95;11.73;;;;;;;24.29;66.76;99926.19;5297950;27;20468;-86
2021/07/18 04:57:49;;;;;;;15.48;11.93;;;;;;;23.15;71.25;99924.97;5278469;27;20117;-85
2021/07/18 05:59:49;;;;;;;15.32;11.23;;;;;;;23.75;70.53;99917.34;5319852;27;20081;-84
2021/07/18 06:02:17;;;;;;;14.80;12.18;;;;;;;23.78;69.89;99918.97;5318005;27;20061;-84
2021/07/18 06:04:43;;;;;;;15.32;11.63;;;;;;;23.43;71.87;99922.19;5319672;27;20065;-85
2021/07/18 06:07:11;;;;;;;16.83;11.80;;;;;;;23.29;72.12;99927.59;5319678;27;20063;-85
2021/07/18 06:09:37;;;;;;;14.48;11.85;;;;;;;23.75;71.00;99929.91;5320401;27;20055;-86
2021/07/18 06:12:05;;;;;;;13.05;10.68;;;;;;;23.90;70.44;99933.37;5300169;27;20080;-84
2021/07/18 06:14:32;;;;;;;16.40;12.02;;;;;;;23.61;71.11;99938.84;5319862;27;20401;-85
2021/07/18 06:16:59;;;;;;;14.40;12.32;;;;;;;23.21;72.89;99957.59;5300530;27;20086;-84
2021/07/18 08:22:45;;;;;;;23.92;21.25;;;;;;;25.79;64.71;99950.19;5314836;26;20037;-86
2021/07/18 08:25:15;;;;;;;22.35;20.15;;;;;;;25.69;64.83;99947.34;5304719;27;20139;-85
2021/07/18 08:27:43;;;;;;;26.42;20.55;;;;;;;25.96;63.86;99941.72;5324215;27;20063;-85
2021/07/18 08:30:11;;;;;;;26.67;20.37;;;;;;;25.78;64.90;99929.66;5324165;27;20073;-86
2021/07/18 08:32:38;;;;;;;21.65;19.45;;;;;;;25.40;66.35;99928.03;5302807;27;20116;-85
2021/07/18 08:35:06;;;;;;;23.00;20.70;;;;;;;25.66;65.09;99933.28;5321754;27;20490;-85
2021/07/18 08:37:33;;;;;;;22.67;20.27;;;;;;;25.72;65.20;99933.66;5321899;27;20384;-84
2021/07/18 08:40:02;;;;;;;22.00;19.10;;;;;;;25.77;65.28;99938.72;5322855;27;20057;-84
2021/07/18 08:42:30;;;;;;;25.17;21.35;;;;;;;26.01;63.98;99936.00;5322865;27;20057;-84
2021/07/18 08:44:58;;;;;;;23.73;21.25;;;;;;;26.19;63.55;99937.25;5322429;27;20339;-84
2021/07/18 08:47:25;;;;;;;22.87;20.12;;;;;;;25.24;66.69;99940.91;5321670;27;20060;-85
2021/07/18 08:49:53;;;;;;;23.50;20.73;;;;;;;25.68;65.55;99939.37;5321667;27;20072;-84
2021/07/18 08:52:21;;;;;;;22.13;19.92;;;;;;;25.66;66.04;99927.91;5321353;27;20445;-84
2021/07/18 08:54:50;;;;;;;23.65;20.85;;;;;;;26.22;64.12;99922.69;5301483;27;20163;-87
2021/07/18 08:57:19;;;;;;;28.73;21.92;;;;;;;26.20;63.90;99922.78;5322007;27;20068;-84
2021/07/18 08:59:46;;;;;;;25.08;20.05;;;;;;;25.86;65.03;99923.72;5322151;27;20083;-85
2021/07/18 09:02:15;;;;;;;22.13;19.83;;;;;;;25.81;65.76;99919.50;5320898;27;20076;-84
2021/07/18 09:04:42;;;;;;;21.30;18.90;;;;;;;25.18;67.62;99928.78;5321971;27;20122;-85
2021/07/18 09:07:14;;;;;;;23.33;19.17;;;;;;;25.81;65.69;99918.66;5321739;27;20072;-84
2021/07/18 09:09:41;;;;;;;22.20;19.50;;;;;;;25.69;66.57;99922.28;5303053;27;20091;-84
2021/07/18 09:12:09;;;;;;;20.75;18.37;;;;;;;25.95;65.97;99917.63;5302683;27;20056;-84
2021/07/18 09:14:38;;;;;;;24.50;19.17;;;;;;;25.61;66.86;99925.53;5302239;27;20025;-85
2021/07/18 09:17:10;;;;;;;22.62;19.00;;;;;;;25.91;66.04;99922.38;5322007;27;20426;-85
2021/07/18 09:19:40;;;;;;;20.73;18.52;;;;;;;25.72;66.78;99924.75;5302856;27;20056;-85
2021/07/18 09:22:14;;;;;;;23.67;18.85;;;;;;;25.80;67.24;99925.87;5323083;27;20075;-85
2021/07/18 09:24:47;;;;;;;23.80;18.58;;;;;;;26.37;65.82;99931.41;5325284;27;20148;-85
2021/07/18 09:27:25;;;;;;;20.42;18.27;;;;;;;26.19;66.40;99934.56;5325979;27;20096;-85
2021/07/18 09:29:55;;;;;;;20.15;18.08;;;;;;;25.96;66.18;99930.09;5325984;27;20049;-85
2021/07/18 09:32:31;;;;;;;22.90;19.25;;;;;;;25.46;68.53;99932.94;5325599;27;20040;-85
2021/07/18 09:35:01;;;;;;;22.10;17.52;;;;;;;25.95;66.46;99939.16;5305670;27;20423;-86
2021/07/18 09:37:40;;;;;;;21.27;18.27;;;;;;;25.99;66.43;99933.41;5304411;27;20064;-84
2021/07/18 09:40:12;;;;;;;23.25;17.42;;;;;;;26.61;64.75;99925.91;5324598;27;20052;-85
2021/07/18 09:42:54;;;;;;;21.95;19.42;;;;;;;26.80;63.76;99926.16;5325498;27;20079;-85
2021/07/18 09:45:23;;;;;;;22.08;16.73;;;;;;;26.14;65.27;99925.13;5326107;27;20021;-85
2021/07/18 09:47:58;;;;;;;23.47;16.73;;;;;;;26.70;64.00;99919.78;5326768;27;20110;-86
2021/07/18 09:50:40;;;;;;;19.23;17.25;;;;;;;26.56;64.48;99922.72;5326625;27;20067;-85
2021/07/18 09:53:20;;;;;;;20.45;17.60;;;;;;;26.39;64.23;99922.22;5326666;27;20021;-86
2021/07/18 09:56:08;;;;;;;19.33;17.05;;;;;;;27.08;62.67;99926.59;5325246;27;20445;-85
2021/07/18 09:58:38;;;;;;;17.37;15.63;;;;;;;27.16;61.49;99910.69;5325488;27;20057;-86
2021/07/18 10:01:15;;;;;;;18.80;16.80;;;;;;;27.56;61.07;99900.13;5306732;27;20029;-86
2021/07/18 10:03:50;;;;;;;18.08;16.17;;;;;;;27.15;61.47;99890.09;5325296;27;20053;-87
2021/07/18 10:06:19;;;;;;;19.02;16.45;;;;;;;27.36;61.34;99896.38;5326049;27;20079;-86
2021/07/18 10:08:49;;;;;;;19.73;16.60;;;;;;;27.07;61.52;99893.38;5326571;27;20052;-86
2021/07/18 10:11:22;;;;;;;;;;;;;;;26.76;62.96;99907.66;5326020;27;20088;-86
2021/07/18 10:13:51;;;;;;;17.73;15.98;;;;;;;27.66;60.52;99912.81;5326186;27;20310;-85
2021/07/18 10:16:20;;;;;;;17.35;15.55;;;;;;;27.53;60.60;99910.28;5325885;27;20825;-86
2021/07/18 10:18:50;;;;;;;18.42;15.55;;;;;;;27.49;60.68;99911.53;5324743;27;20052;-85
2021/07/18 10:21:18;;;;;;;;;;;;;;;28.05;59.74;99906.72;5306992;27;20126;-85
2021/07/18 10:23:48;;;;;;;15.35;13.70;;;;;;;28.17;58.26;99912.03;5306475;27;19975;-86
2021/07/18 10:26:18;;;;;;;15.90;14.07;;;;;;;28.65;57.25;99903.34;5325856;27;20068;-86
2021/07/18 10:28:47;;;;;;;15.88;14.13;;;;;;;28.36;58.23;99909.47;5326176;27;20108;-86
2021/07/18 10:55:21;;;;;;;17.27;15.48;;;;;;;28.55;57.55;99922.22;5325405;26;20069;-85
2021/07/18 10:57:51;;;;;;;16.92;14.07;;;;;;;28.35;57.50;99923.94;5325872;27;20112;-85
2021/07/18 11:00:29;;;;;;;17.92;15.07;;;;;;;28.92;56.04;99919.78;5325388;27;20051;-85
2021/07/18 11:03:06;;;;;;;16.55;14.30;;;;;;;28.73;56.23;99927.84;5325653;27;20040;-85
2021/07/18 11:05:48;;;;;;;19.42;15.23;;;;;;;28.72;56.22;99936.94;5326185;27;20375;-85
2021/07/18 11:08:15;;;;;;;21.87;15.73;;;;;;;29.05;55.86;99935.78;5306043;27;20034;-85
2021/07/18 11:10:54;;;;;;;16.87;14.63;;;;;;;29.34;56.04;99930.44;5324962;27;20079;-85
2021/07/18 11:13:22;;;;;;;18.43;15.27;;;;;;;29.59;55.21;99931.75;5305814;27;20067;-86
2021/07/18 11:15:50;;;;;;;14.33;12.93;;;;;;;29.62;54.84;99917.94;5305166;27;20682;-85
2021/07/18 11:18:32;;;;;;;18.20;14.32;;;;;;;29.61;53.88;99915.34;5325774;27;20071;-85
2021/07/18 11:21:30;;;;;;;14.57;13.07;;;;;;;30.04;52.75;99912.19;5310290;27;20145;-84
2021/07/18 11:23:57;;;;;;;18.53;13.77;;;;;;;29.94;52.90;99911.34;5326910;27;20691;-85
2021/07/18 11:26:24;;;;;;;14.75;13.20;;;;;;;30.37;50.98;99903.72;5327616;27;20137;-85
2021/07/18 11:29:01;;;;;;;15.50;13.77;;;;;;;29.34;53.83;99897.13;5327016;27;20057;-86
2021/07/18 11:31:35;;;;;;;18.42;16.30;;;;;;;29.41;52.43;99895.53;5327694;27;20116;-85
2021/07/18 11:34:15;;;;;;;20.05;15.88;;;;;;;29.45;53.08;99896.97;5323956;27;20247;-85
2021/07/18 11:36:42;;;;;;;19.52;16.65;;;;;;;30.23;51.53;99894.19;5324414;27;20044;-86
2021/07/18 11:39:10;;;;;;;15.70;14.05;;;;;;;30.64;51.77;99887.47;5306187;27;20079;-85
2021/07/18 11:41:41;;;;;;;16.43;14.13;;;;;;;30.75;50.54;99895.41;5305818;27;20056;-86
2021/07/18 11:44:09;;;;;;;16.90;13.80;;;;;;;31.04;49.52;99893.56;5306415;27;20513;-85
2021/07/18 11:46:40;;;;;;;15.50;13.80;;;;;;;30.70;51.41;99899.56;5325485;27;20434;-86
2021/07/18 11:49:08;;;;;;;17.05;14.45;;;;;;;30.84;49.97;99895.53;5325302;27;20025;-85
2021/07/18 11:51:38;;;;;;;15.60;14.00;;;;;;;30.80;49.82;99897.72;5324700;27;20072;-86
2021/07/18 11:54:06;;;;;;;15.10;13.60;;;;;;;30.55;51.37;99891.09;5322760;27;20497;-85
2021/07/18 11:56:41;;;;;;;14.85;13.32;;;;;;;30.61;50.09;99886.91;5322615;27;20049;-84
2021/07/18 11:59:11;;;;;;;16.20;14.50;;;;;;;30.59;50.61;99886.22;5322376;27;20072;-85
2021/07/18 12:01:44;;;;;;;17.35;14.30;;;;;;;30.00;51.57;99886.41;5323573;27;20138;-84
2021/07/18 12:04:15;;;;;;;17.58;13.70;;;;;;;30.65;50.64;99877.47;5321747;27;20115;-84
2021/07/18 12:06:42;;;;;;;15.75;13.45;;;;;;;30.35;51.10;99889.44;5302185;27;20114;-85
2021/07/18 12:09:17;;;;;;;16.35;14.45;;;;;;;31.02;49.80;99873.88;5322146;27;20097;-85
2021/07/18 12:11:48;;;;;;;16.87;14.98;;;;;;;30.44;50.47;99872.28;5323940;27;20063;-85
2021/07/18 12:14:16;;;;;;;16.58;14.23;;;;;;;31.08;49.82;99865.13;5325793;27;20106;-85
2021/07/18 12:16:45;;;;;;;14.60;13.13;;;;;;;31.44;48.52;99853.28;5326269;27;20055;-85
2021/07/18 12:19:14;;;;;;;15.70;13.93;;;;;;;31.58;49.24;99849.16;5326927;27;20053;-85
2021/07/18 12:21:42;;;;;;;;;;;;;;;31.63;48.55;99852.25;5326476;27;20081;-85
2021/07/18 12:24:47;;;;;;;14.73;12.82;;;;;;;31.36;48.12;99836.94;5306506;27;19968;-86
2021/07/18 12:27:17;;;;;;;17.62;15.05;;;;;;;31.88;49.00;99838.81;5326063;27;20075;-86
2021/07/18 12:29:52;;;;;;;16.73;12.88;;;;;;;31.87;48.09;99827.13;5323754;27;20061;-86
2021/07/18 12:52:50;;;;;;;17.55;15.60;;;;;;;31.06;49.16;99811.03;5311715;26;20084;-87
2021/07/18 12:55:27;;;;;;;16.73;14.93;;;;;;;31.25;48.85;99807.28;5306058;27;20084;-87
2021/07/18 12:57:55;;;;;;;18.50;14.65;;;;;;;31.68;47.57;99805.63;5305661;27;20060;-86
2021/07/18 13:21:48;;;;;;;20.08;16.12;;;;;;;31.66;47.84;99791.34;5328189;27;20043;-87
2021/07/18 13:24:33;;;;;;;15.43;13.80;;;;;;;32.08;47.29;99777.00;5309210;27;20060;-86
2021/07/18 13:27:10;;;;;;;15.35;13.40;;;;;;;31.37;48.42;99783.50;5308531;27;20061;-87
2021/07/18 13:29:39;;;;;;;17.02;15.23;;;;;;;31.43;46.75;99780.16;5307548;27;20057;-86
2021/07/18 13:32:12;;;;;;;17.20;15.35;;;;;;;31.44;47.86;99780.00;5308005;27;20065;-86
2021/07/18 13:34:41;;;;;;;18.90;14.35;;;;;;;31.07;48.41;99777.44;5328043;27;20057;-86
2021/07/18 13:37:10;;;;;;;16.42;14.77;;;;;;;30.88;48.69;99783.03;5309156;27;20507;-87
2021/07/18 13:39:39;;;;;;;18.25;14.02;;;;;;;31.23;47.37;99771.28;5313675;27;20049;-88
2021/07/18 13:42:11;;;;;;;16.00;14.00;;;;;;;32.11;47.91;99768.53;5310628;27;20076;-88
2021/07/18 13:44:40;;;;;;;19.15;15.73;;;;;;;32.60;46.14;99763.28;5307059;27;20057;-87
2021/07/18 13:47:08;;;;;;;16.80;13.77;;;;;;;33.25;44.84;99757.94;5306654;27;20029;-87
2021/07/18 13:49:35;;;;;;;17.80;14.00;;;;;;;33.21;44.53;99763.91;5326666;27;20126;-87
2021/07/18 13:52:03;;;;;;;16.50;14.80;;;;;;;33.78;44.22;99758.41;5306836;27;20079;-86
2021/07/18 13:54:31;;;;;;;16.50;14.02;;;;;;;33.91;44.46;99763.28;5306897;27;20060;-87
2021/07/18 13:56:58;;;;;;;17.17;14.65;;;;;;;34.51;41.15;99754.53;5325587;27;20575;-86
2021/07/18 13:59:25;;;;;;;17.02;14.85;;;;;;;33.94;41.94;99754.75;5305199;27;20106;-86
2021/07/18 14:01:52;;;;;;;19.05;14.93;;;;;;;34.18;41.04;99758.44;5324974;27;20029;-87
2021/07/18 14:04:21;;;;;;;16.42;14.35;;;;;;;34.26;41.14;99756.53;5323924;27;20128;-88
2021/07/18 14:06:52;;;;;;;16.23;14.55;;;;;;;34.32;41.34;99760.44;5327126;27;20119;-87
2021/07/18 14:09:23;;;;;;;15.40;13.55;;;;;;;33.65;42.61;99761.69;5309833;27;20406;-88
2021/07/18 14:11:53;;;;;;;14.70;13.10;;;;;;;33.06;43.35;99761.00;5308560;27;20036;-87
2021/07/18 14:14:20;;;;;;;16.27;13.48;;;;;;;32.96;42.64;99765.72;5327473;27;20066;-87
2021/07/18 14:16:48;;;;;;;15.57;14.00;;;;;;;33.57;41.86;99758.13;5306225;27;20070;-88
2021/07/18 14:19:15;;;;;;;15.82;12.75;;;;;;;33.46;41.56;99759.28;5309506;27;20029;-88
2021/07/18 14:21:44;;;;;;;17.60;14.73;;;;;;;33.09;41.93;99763.41;5330666;27;20482;-86
2021/07/18 14:24:15;;;;;;;18.42;12.37;;;;;;;33.03;43.01;99755.88;5330042;27;20038;-86
2021/07/18 14:26:44;;;;;;;14.20;12.05;;;;;;;32.31;43.42;99748.22;5329013;27;20100;-86
2021/07/18 14:29:12;;;;;;;14.55;13.05;;;;;;;32.68;42.24;99751.56;5308295;27;20064;-85
2021/07/18 14:31:40;;;;;;;;;;;;;;;32.60;42.77;99751.56;5328142;27;20033;-87
2021/07/18 14:34:09;;;;;;;17.77;14.50;;;;;;;32.99;43.33;99741.78;5307701;27;19978;-86
2021/07/18 14:36:39;;;;;;;16.75;13.00;;;;;;;32.67;43.94;99747.16;5309628;27;20096;-86
2021/07/18 14:39:12;;;;;;;16.55;12.90;;;;;;;32.66;42.74;99756.34;5311915;27;20057;-87
2021/07/18 14:41:58;;;;;;;18.37;14.30;;;;;;;31.93;44.24;99751.47;5299257;27;20034;-88
2021/07/18 14:44:33;;;;;;;18.23;13.77;;;;;;;31.87;45.20;99751.06;5329807;27;20069;-88
2021/07/18 14:47:03;;;;;;;15.57;13.98;;;;;;;32.19;45.05;99744.09;5331267;27;20025;-87
2021/07/18 14:49:32;;;;;;;17.23;13.30;;;;;;;32.62;45.09;99739.50;5328934;27;20067;-88
2021/07/18 14:52:02;;;;;;;14.93;11.95;;;;;;;32.47;44.68;99741.16;5308654;27;20071;-87
2021/07/18 14:54:31;;;;;;;16.20;12.48;;;;;;;32.10;43.56;99750.53;5310718;27;20057;-88
2021/07/18 14:56:58;;;;;;;15.43;13.35;;;;;;;31.94;44.63;99729.56;5309212;27;20109;-87
2021/07/18 14:59:26;;;;;;;15.90;14.07;;;;;;;32.48;44.13;99732.00;5310024;27;20025;-88
2021/07/18 15:02:01;;;;;;;19.52;15.13;;;;;;;31.59;46.77;99735.94;5312366;27;20033;-88
2021/07/18 15:04:46;;;;;;;15.93;13.43;;;;;;;31.92;45.81;99725.31;5333094;27;20029;-88
2021/07/18 15:07:18;;;;;;;15.18;13.65;;;;;;;32.28;44.42;99729.53;5311499;27;20376;-87
2021/07/18 15:09:46;;;;;;;15.25;13.77;;;;;;;32.51;43.92;99720.78;5327765;27;20094;-87
2021/07/18 15:12:13;;;;;;;21.80;14.80;;;;;;;32.24;43.94;99724.56;5307862;27;20078;-86
2021/07/18 15:14:40;;;;;;;16.87;15.05;;;;;;;32.26;44.19;99720.69;5307348;27;20064;-86
2021/07/18 15:17:08;;;;;;;18.85;16.02;;;;;;;31.80;46.36;99706.56;5306883;27;20777;-86
2021/07/18 15:19:38;;;;;;;18.83;16.62;;;;;;;32.09;46.83;99717.06;5306335;27;20065;-85
2021/07/18 15:22:06;;;;;;;22.20;19.00;;;;;;;32.53;46.79;99716.00;5325598;27;20091;-86
2021/07/18 15:24:33;;;;;;;20.20;18.05;;;;;;;32.56;45.97;99713.84;5306491;27;20868;-85
2021/07/18 15:27:00;;;;;;;21.15;18.73;;;;;;;31.88;46.98;99719.31;5327775;27;20045;-85
2021/07/18 15:29:28;;;;;;;20.30;18.25;;;;;;;31.86;47.77;99708.62;5308695;27;20421;-86
2021/07/18 15:31:55;;;;;;;20.60;18.58;;;;;;;31.38;48.30;99709.19;5307909;27;20045;-86
2021/07/18 15:34:23;;;;;;;26.23;20.83;;;;;;;31.18;48.89;99714.81;5328582;27;20094;-86
2021/07/18 15:36:50;;;;;;;23.30;20.02;;;;;;;31.16;49.41;99702.41;5328127;27;20057;-86
2021/07/18 15:39:17;;;;;;;22.90;20.60;;;;;;;31.44;49.17;99712.13;5327533;27;20028;-86
2021/07/18 15:41:45;;;;;;;26.42;21.85;;;;;;;31.28;49.10;99711.13;5307985;27;20029;-85
2021/07/18 15:44:12;;;;;;;24.27;21.27;;;;;;;31.09;49.71;99714.88;5309061;27;20039;-85
2021/07/18 15:46:39;;;;;;;23.65;20.85;;;;;;;30.99;49.62;99723.97;5309121;27;20075;-85
2021/07/18 15:49:15;;;;;;;23.75;20.80;;;;;;;30.88;49.89;99726.91;5309615;27;20029;-85
2021/07/18 15:51:42;;;;;;;22.20;19.90;;;;;;;30.78;49.96;99734.25;5329895;27;20089;-85
2021/07/18 15:54:09;;;;;;;20.62;18.37;;;;;;;30.86;49.40;99747.09;5310629;27;20056;-86
2021/07/18 15:56:39;;;;;;;17.70;15.88;;;;;;;30.88;49.44;99751.31;5310602;27;20112;-85
2021/07/18 15:59:07;;;;;;;17.33;15.30;;;;;;;30.85;49.38;99764.34;5310169;27;20410;-85
2021/07/18 16:01:35;;;;;;;15.00;13.38;;;;;;;30.43;50.45;99760.31;5330414;27;20032;-86
2021/07/18 16:04:04;;;;;;;14.55;11.73;;;;;;;30.55;50.62;99759.09;5310346;27;20738;-85
2021/07/18 16:06:32;;;;;;;18.02;12.30;;;;;;;30.44;50.76;99777.44;5330264;27;20048;-85
2021/07/18 16:08:59;;;;;;;14.55;9.70;;;;;;;30.23;51.11;99775.84;5327876;27;20705;-85
2021/07/18 16:11:27;;;;;;;11.77;9.95;;;;;;;29.82;51.72;99783.38;5309958;27;20079;-85
2021/07/18 16:13:54;;;;;;;12.30;10.32;;;;;;;30.23;50.74;99789.38;5310689;27;20040;-85
2021/07/18 16:16:22;;;;;;;17.20;10.52;;;;;;;29.31;52.38;99794.59;5330153;27;20060;-85
2021/07/18 16:43:36;;;;;;;9.55;7.45;;;;;;;25.94;54.12;99845.91;5311247;26;20088;-85
2021/07/18 16:46:12;;;;;;;10.38;7.93;;;;;;;25.51;55.57;99855.47;5307484;27;20130;-85
2021/07/18 16:48:39;;;;;;;9.25;7.53;;;;;;;25.65;55.07;99861.59;5324699;27;20061;-85
2021/07/18 16:51:06;;;;;;;10.27;7.70;;;;;;;25.67;54.98;99859.66;5306037;27;20121;-85
2021/07/18 16:53:33;;;;;;;11.75;8.07;;;;;;;25.24;55.48;99853.06;5306377;27;20048;-85
2021/07/18 16:56:00;;;;;;;8.60;7.28;;;;;;;25.70;54.00;99856.72;5325426;27;20044;-85
2021/07/18 16:58:28;;;;;;;10.48;7.32;;;;;;;25.48;54.74;99849.47;5324937;27;20049;-85
2021/07/18 17:00:57;;;;;;;10.25;7.47;;;;;;;25.91;53.17;99847.00;5323857;27;20031;-85
2021/07/18 17:03:24;;;;;;;13.30;6.73;;;;;;;26.38;52.07;99845.06;5324450;27;20114;-85
2021/07/18 17:05:51;;;;;;;12.80;7.12;;;;;;;26.68;51.50;99847.16;5305512;27;20159;-85
2021/07/18 17:08:18;;;;;;;11.77;6.60;;;;;;;26.64;51.35;99845.69;5304356;27;20029;-85
2021/07/18 17:10:45;;;;;;;8.57;6.72;;;;;;;26.46;51.81;99845.31;5305332;27;20655;-85
2021/07/18 17:13:12;;;;;;;9.30;6.78;;;;;;;26.61;51.32;99840.56;5325237;27;20025;-85
2021/07/18 17:15:39;;;;;;;10.18;7.28;;;;;;;26.52;51.31;99848.53;5325989;27;20068;-85
2021/07/18 17:18:07;;;;;;;11.55;7.87;;;;;;;26.23;52.50;99827.47;5325333;27;20411;-86
2021/07/18 17:20:35;;;;;;;8.70;6.78;;;;;;;25.98;53.04;99837.50;5324172;27;20086;-85
2021/07/18 17:23:03;;;;;;;9.60;7.05;;;;;;;25.69;53.91;99831.66;5305468;27;20052;-85
2021/07/18 17:25:30;;;;;;;9.68;7.60;;;;;;;25.76;54.24;99826.66;5305600;27;20080;-86
2021/07/18 17:27:57;;;;;;;10.20;7.55;;;;;;;26.26;52.53;99830.75;5305785;27;20120;-85
2021/07/18 17:30:24;;;;;;;11.57;7.65;;;;;;;26.24;52.72;99842.66;5305963;27;20152;-85
2021/07/18 17:32:52;;;;;;;10.82;7.45;;;;;;;26.55;51.77;99842.91;5326675;27;20048;-86
2021/07/18 17:35:20;;;;;;;9.32;6.80;;;;;;;26.53;51.73;99840.31;5326489;27;20069;-86
2021/07/18 17:37:47;;;;;;;11.52;8.05;;;;;;;26.44;52.16;99844.59;5304997;27;20446;-85
2021/07/18 17:40:14;;;;;;;8.73;6.93;;;;;;;26.12;53.12;99849.00;5304152;27;20077;-85
2021/07/18 17:42:42;;;;;;;12.05;7.60;;;;;;;26.58;52.02;99845.34;5324587;27;20056;-86
2021/07/18 17:45:11;;;;;;;7.87;7.05;;;;;;;26.38;52.51;99844.22;5303603;27;20108;-85
2021/07/18 17:47:38;;;;;;;9.48;8.13;;;;;;;26.94;51.20;99836.06;5302708;27;20056;-86
2021/07/18 17:50:12;;;;;;;10.27;8.10;;;;;;;26.91;51.28;99847.09;5323654;27;20067;-85
2021/07/18 17:52:40;;;;;;;11.15;7.72;;;;;;;27.04;50.85;99836.16;5323503;27;20793;-85
2021/07/18 17:55:09;;;;;;;10.10;7.18;;;;;;;27.28;50.29;99842.22;5323288;27;20060;-86
2021/07/18 17:57:36;;;;;;;11.05;7.43;;;;;;;26.90;51.04;99845.41;5322845;27;20114;-86
2021/07/18 18:00:11;;;;;;;22.80;17.58;;;;;;;27.11;50.99;99854.38;5322620;27;20048;-86
2021/07/18 18:02:38;;;;;;;10.73;7.22;;;;;;;27.34;50.61;99860.59;5322371;27;20080;-85
2021/07/18 18:05:08;;;;;;;10.68;7.57;;;;;;;26.91;51.47;99868.66;5302317;27;20130;-85
2021/07/18 18:07:36;;;;;;;10.68;8.75;;;;;;;27.33;49.89;99864.28;5321489;27;20858;-85
2021/07/18 18:10:05;;;;;;;10.32;7.03;;;;;;;27.12;50.59;99874.09;5321510;27;20454;-85
2021/07/18 18:12:32;;;;;;;10.70;7.20;;;;;;;27.17;50.71;99869.22;5301579;27;20049;-85
2021/07/18 18:14:59;;;;;;;9.27;7.40;;;;;;;26.92;51.81;99871.25;5321292;27;20057;-85
2021/07/18 18:17:28;;;;;;;11.05;7.22;;;;;;;27.24;50.58;99866.88;5301425;27;20060;-85
2021/07/18 18:19:55;;;;;;;11.48;7.90;;;;;;;27.12;51.32;99868.72;5320957;27;20068;-85
2021/07/18 18:22:22;;;;;;;9.27;8.15;;;;;;;27.10;51.39;99849.13;5320662;27;20076;-85
2021/07/18 18:24:49;;;;;;;11.25;7.70;;;;;;;26.56;53.08;99858.06;5321541;27;20060;-86
2021/07/18 18:27:18;;;;;;;11.27;8.00;;;;;;;26.28;54.13;99855.72;5320991;27;20077;-85
2021/07/18 18:29:47;;;;;;;10.93;7.40;;;;;;;25.87;55.43;99864.37;5320601;27;20082;-85
2021/07/18 18:32:14;;;;;;;13.27;8.65;;;;;;;25.88;55.25;99857.16;5320721;27;20358;-85
2021/07/18 18:34:42;;;;;;;10.88;7.87;;;;;;;25.78;55.12;99873.16;5300829;27;20076;-85
2021/07/18 18:37:11;;;;;;;11.85;7.85;;;;;;;25.28;56.92;99870.66;5300672;27;20075;-86
2021/07/18 18:39:39;;;;;;;9.93;7.65;;;;;;;25.07;57.89;99861.50;5320809;27;20063;-86
2021/07/18 18:42:06;;;;;;;11.65;8.85;;;;;;;24.63;59.58;99868.31;5321227;27;20052;-86
2021/07/18 18:44:33;;;;;;;14.13;7.10;;;;;;;24.67;59.54;99867.09;5320325;26;20057;-85
2021/07/18 18:47:00;;;;;;;11.10;7.93;;;;;;;24.04;61.33;99879.63;5301341;27;20468;-85
2021/07/18 18:49:27;;;;;;;11.70;7.30;;;;;;;23.71;62.32;99883.69;5322332;27;20106;-85
2021/07/18 18:51:54;;;;;;;9.13;7.75;;;;;;;23.39;63.83;99876.94;5322591;27;20077;-85
2021/07/18 18:54:22;;;;;;;10.73;8.43;;;;;;;23.73;62.50;99872.81;5302533;27;20210;-85
2021/07/18 18:56:50;;;;;;;11.15;8.55;;;;;;;23.78;62.95;99874.22;5321353;27;20622;-85
2021/07/18 18:59:17;;;;;;;13.05;9.05;;;;;;;23.58;63.76;99886.28;5321596;27;20113;-86
2021/07/18 19:01:44;;;;;;;15.25;9.00;;;;;;;23.52;64.01;99892.06;5301275;27;20162;-85
2021/07/18 19:04:14;;;;;;;13.20;8.30;;;;;;;23.50;63.95;99877.94;5321753;27;20065;-86
2021/07/18 19:06:42;;;;;;;10.90;9.10;;;;;;;23.31;64.81;99878.28;5301659;27;20136;-86
2021/07/18 19:09:11;;;;;;;10.82;8.50;;;;;;;23.49;63.89;99880.69;5321078;27;20092;-86
2021/07/18 19:11:38;;;;;;;11.88;7.80;;;;;;;23.37;64.97;99882.38;5321189;27;20111;-86
2021/07/18 19:14:06;;;;;;;10.20;9.07;;;;;;;23.09;66.09;99880.69;5320697;27;20726;-86
2021/07/18 19:16:35;;;;;;;14.25;10.18;;;;;;;23.02;66.51;99882.91;5321469;27;20065;-85
2021/07/18 19:19:03;;;;;;;10.65;8.30;;;;;;;22.47;68.56;99882.88;5321955;27;20052;-86
2021/07/18 19:21:30;;;;;;;11.10;8.38;;;;;;;22.93;66.86;99890.66;5321182;27;20444;-85
2021/07/18 19:23:57;;;;;;;12.68;9.27;;;;;;;23.22;65.47;99891.44;5321670;27;20064;-86
2021/07/18 19:26:24;;;;;;;10.38;8.70;;;;;;;22.48;68.79;99903.34;5321309;27;20056;-86
2021/07/18 19:28:51;;;;;;;10.20;7.85;;;;;;;23.14;66.58;99886.59;5300835;27;20065;-86
2021/07/18 19:31:20;;;;;;;13.30;9.80;;;;;;;22.59;68.69;99890.12;5301552;27;20080;-86
2021/07/18 19:33:47;;;;;;;10.90;9.03;;;;;;;22.11;70.59;99884.19;5321480;27;20068;-85
2021/07/18 19:36:15;;;;;;;12.45;8.43;;;;;;;22.34;69.97;99893.50;5300786;27;20140;-86
2021/07/18 19:38:42;;;;;;;12.45;8.35;;;;;;;22.48;69.75;99889.97;5320948;27;20044;-85
2021/07/18 19:41:24;;;;;;;11.23;8.60;;;;;;;22.71;68.56;99888.47;5320839;27;20057;-85
2021/07/18 19:43:52;;;;;;;12.20;9.38;;;;;;;22.82;68.37;99892.19;5320785;26;20076;-86
2021/07/18 19:46:19;;;;;;;10.00;8.38;;;;;;;22.60;69.52;99905.25;5301443;27;20343;-85
2021/07/18 19:48:48;;;;;;;13.05;8.95;;;;;;;23.00;67.96;99905.38;5301343;27;20053;-85
2021/07/18 19:51:17;;;;;;;10.73;7.93;;;;;;;22.36;70.69;99919.22;5321302;27;20076;-85
2021/07/18 19:53:45;;;;;;;14.77;8.77;;;;;;;22.72;68.91;99915.19;5320994;27;20053;-85
2021/07/18 19:56:14;;;;;;;11.25;8.38;;;;;;;22.95;68.60;99918.25;5320711;27;20052;-86
2021/07/18 19:58:41;;;;;;;10.35;8.05;;;;;;;22.94;68.28;99924.50;5320573;27;20053;-86
2021/07/18 20:01:11;;;;;;;10.80;8.52;;;;;;;23.04;68.29;99931.03;5301232;27;20573;-85
2021/07/18 20:03:38;;;;;;;10.18;8.63;;;;;;;23.21;67.75;99929.94;5320735;27;20060;-85
2021/07/18 20:06:08;;;;;;;12.93;8.52;;;;;;;22.88;68.26;99932.00;5320595;27;20061;-86
2021/07/18 20:08:36;;;;;;;12.40;8.23;;;;;;;23.03;67.21;99932.87;5320740;27;20078;-86
2021/07/18 20:11:03;;;;;;;9.30;7.35;;;;;;;23.05;68.24;99930.91;5320344;27;20112;-86
2021/07/18 20:13:30;;;;;;;11.77;7.87;;;;;;;22.66;69.63;99928.97;5320501;27;20056;-86
2021/07/18 20:15:57;;;;;;;10.80;8.77;;;;;;;23.01;68.78;99934.78;5299873;27;20472;-86
2021/07/18 20:18:24;;;;;;;11.40;8.98;;;;;;;23.10;68.35;99944.03;5300139;27;20072;-85
2021/07/18 20:20:51;;;;;;;14.57;9.23;;;;;;;22.75;70.11;99946.25;5320247;27;20053;-85
2021/07/18 20:23:18;;;;;;;10.63;8.48;;;;;;;22.44;71.44;99951.72;5319664;27;20451;-86
2021/07/18 20:25:45;;;;;;;9.57;8.02;;;;;;;22.52;70.43;99950.38;5319839;27;20453;-86
2021/07/18 20:28:12;;;;;;;8.93;7.03;;;;;;;22.53;70.92;99952.97;5319952;27;20119;-86
2021/07/18 20:30:39;;;;;;;12.35;8.40;;;;;;;22.66;70.08;99953.06;5299848;27;20497;-86
2021/07/18 20:33:06;;;;;;;13.02;8.10;;;;;;;22.67;70.52;99954.78;5321343;27;20091;-85
2021/07/18 20:35:33;;;;;;;9.57;6.87;;;;;;;22.31;71.80;99965.97;5320906;27;20080;-85
2021/07/18 20:38:01;;;;;;;12.02;8.15;;;;;;;22.71;69.71;99963.47;5300651;27;20053;-85
2021/07/18 20:40:28;;;;;;;10.07;6.97;;;;;;;22.97;68.83;99956.50;5320587;27;20053;-85
2021/07/18 20:42:55;;;;;;;9.77;7.75;;;;;;;23.08;68.39;99964.69;5301129;27;20064;-85
2021/07/18 20:45:24;;;;;;;9.45;8.25;;;;;;;23.00;68.83;99972.38;5300905;27;20078;-86